Time;durP1;ratioP1;P1;durP2;ratioP2;P2;SDS_P1;SDS_P2;PMS_P1;PMS_P2;Temp;Humidity;BMP_temperature;BMP_pressure;BME280_temperature;BME280_humidity;BME280_pressure;Samples;Min_cycle;Max_cycle;Signal;HPM_P1;HPM_P2
2022/11/09 03:02:51;;;;;;;14.17;13.07;;;9.80;99.90;;;;;;4915066;29;20290;-83
2022/11/09 03:05:18;;;;;;;14.23;12.93;;;9.80;99.90;;;;;;4918531;29;20204;-83
2022/11/09 03:07:46;;;;;;;13.97;12.97;;;9.80;99.90;;;;;;4918670;29;20711;-83
2022/11/09 03:10:14;;;;;;;13.67;12.67;;;9.80;99.90;;;;;;4918740;29;20200;-83
2022/11/09 03:12:42;;;;;;;14.07;13.00;;;9.80;99.90;;;;;;4919007;29;20220;-83
2022/11/09 03:15:11;;;;;;;14.77;13.67;;;9.90;99.90;;;;;;4920055;29;20204;-83
2022/11/09 03:17:43;;;;;;;15.63;14.43;;;9.90;99.90;;;;;;4920312;29;20195;-83
2022/11/09 03:20:12;;;;;;;14.90;13.70;;;9.90;99.90;;;;;;4918774;29;20672;-83
2022/11/09 03:22:40;;;;;;;15.83;14.40;;;9.80;99.90;;;;;;4918596;29;20695;-83
2022/11/09 03:25:07;;;;;;;15.73;14.37;;;9.80;99.90;;;;;;4918360;29;20200;-83
2022/11/09 03:27:34;;;;;;;16.03;14.73;;;9.80;99.90;;;;;;4918267;29;20210;-83
2022/11/09 03:30:02;;;;;;;16.77;15.50;;;9.80;99.90;;;;;;4918134;29;20607;-83
2022/11/09 03:32:30;;;;;;;16.00;14.70;;;9.80;99.90;;;;;;4918455;29;20221;-83
2022/11/09 03:34:57;;;;;;;16.03;14.60;;;9.80;99.90;;;;;;4917978;29;20600;-84
2022/11/09 03:37:25;;;;;;;15.40;14.20;;;9.90;99.90;;;;;;4917861;29;20748;-83
2022/11/09 03:39:52;;;;;;;16.10;14.90;;;9.90;99.90;;;;;;4918021;29;20199;-83
2022/11/09 03:42:19;;;;;;;15.73;14.47;;;9.90;99.90;;;;;;4917739;29;20239;-82
2022/11/09 03:44:46;;;;;;;16.70;15.40;;;9.90;99.90;;;;;;4918823;29;20279;-84
2022/11/09 03:47:13;;;;;;;16.53;15.27;;;9.90;99.90;;;;;;4917975;29;20214;-83
2022/11/09 03:49:40;;;;;;;15.07;13.87;;;9.80;99.90;;;;;;4917949;29;20267;-81
2022/11/09 03:52:06;;;;;;;14.83;13.83;;;9.90;99.90;;;;;;4916728;29;20224;-81
2022/11/09 03:54:35;;;;;;;15.17;13.97;;;9.90;99.90;;;;;;4918439;29;20292;-83
2022/11/09 03:57:02;;;;;;;15.93;14.80;;;10.00;99.90;;;;;;4914065;29;20197;-83
2022/11/09 03:59:28;;;;;;;15.67;14.47;;;10.00;99.90;;;;;;4915096;29;20200;-82
2022/11/09 04:01:55;;;;;;;16.63;15.30;;;10.00;99.90;;;;;;4918396;29;20231;-82
2022/11/09 04:04:22;;;;;;;15.63;14.47;;;9.90;99.90;;;;;;4918096;29;20669;-82
2022/11/09 04:06:49;;;;;;;16.53;15.27;;;10.00;99.90;;;;;;4918776;29;20204;-82
2022/11/09 04:09:16;;;;;;;18.30;16.90;;;9.90;99.90;;;;;;4919225;29;20204;-82
2022/11/09 04:11:44;;;;;;;17.23;15.93;;;10.00;99.90;;;;;;4920256;29;20280;-82
2022/11/09 04:14:11;;;;;;;17.80;16.30;;;9.90;99.90;;;;;;4918011;29;20271;-82
2022/11/09 04:16:38;;;;;;;17.00;15.63;;;10.00;99.90;;;;;;4916925;29;20204;-83
2022/11/09 04:19:05;;;;;;;18.00;16.40;;;10.00;99.90;;;;;;4918224;29;20243;-83
2022/11/09 04:21:33;;;;;;;18.93;17.40;;;10.00;99.90;;;;;;4916696;29;20235;-83
2022/11/09 04:23:59;;;;;;;18.20;16.70;;;10.00;99.90;;;;;;4917487;29;20207;-84
2022/11/09 04:26:26;;;;;;;17.43;15.97;;;10.00;99.90;;;;;;4917158;29;20208;-83
2022/11/09 04:28:54;;;;;;;17.97;16.57;;;10.00;99.90;;;;;;4916459;29;20192;-84
2022/11/09 04:31:21;;;;;;;18.17;16.73;;;10.00;99.90;;;;;;4917751;29;20247;-85
2022/11/09 04:33:50;;;;;;;18.60;16.93;;;10.10;99.90;;;;;;4916796;29;20208;-84
2022/11/09 04:36:17;;;;;;;19.43;17.83;;;10.10;99.90;;;;;;4917418;29;20212;-84
2022/11/09 04:38:44;;;;;;;18.73;17.13;;;10.10;99.90;;;;;;4918418;29;20202;-85
2022/11/09 04:41:11;;;;;;;18.20;16.63;;;10.10;99.90;;;;;;4918181;29;20223;-84
2022/11/09 04:43:38;;;;;;;16.50;15.20;;;10.10;99.90;;;;;;4916553;29;20264;-84
2022/11/09 04:46:06;;;;;;;17.70;16.10;;;10.10;99.90;;;;;;4916537;29;20215;-84
2022/11/09 04:48:33;;;;;;;17.70;16.27;;;10.20;99.90;;;;;;4915756;29;20196;-84
2022/11/09 04:51:01;;;;;;;16.90;15.67;;;10.20;99.90;;;;;;4916151;29;20236;-84
2022/11/09 04:53:28;;;;;;;15.90;14.60;;;10.20;99.90;;;;;;4913175;29;20254;-84
2022/11/09 04:55:55;;;;;;;16.37;15.17;;;10.20;99.90;;;;;;4916259;29;20209;-83
2022/11/09 04:58:22;;;;;;;16.33;14.93;;;10.20;99.90;;;;;;4916291;29;20216;-84
2022/11/09 05:00:49;;;;;;;16.90;15.50;;;10.20;99.90;;;;;;4916245;29;20229;-84
2022/11/09 05:03:17;;;;;;;16.17;15.10;;;10.20;99.90;;;;;;4916274;29;20219;-85
2022/11/09 05:05:44;;;;;;;16.87;15.67;;;10.20;99.90;;;;;;4916025;29;20192;-85
2022/11/09 05:08:11;;;;;;;16.50;15.20;;;10.20;99.90;;;;;;4915903;29;20561;-84
2022/11/09 05:10:39;;;;;;;16.97;15.77;;;10.20;99.90;;;;;;4915982;29;20200;-85
2022/11/09 05:13:07;;;;;;;17.67;16.37;;;10.20;99.90;;;;;;4918158;29;20200;-85
2022/11/09 05:15:35;;;;;;;16.93;15.53;;;10.20;99.90;;;;;;4917407;29;20228;-84
2022/11/09 05:18:03;;;;;;;16.13;15.13;;;10.20;99.90;;;;;;4917835;29;20204;-84
2022/11/09 05:20:31;;;;;;;17.67;15.70;;;10.20;99.90;;;;;;4915425;29;20212;-83
2022/11/09 05:25:44;;;;;;;17.57;16.03;;;10.20;99.90;;;;;;4915796;29;20538;-84
2022/11/09 05:28:11;;;;;;;16.50;15.30;;;10.30;99.90;;;;;;4915612;29;20203;-83
2022/11/09 05:30:38;;;;;;;16.13;15.13;;;10.30;99.90;;;;;;4915807;29;20204;-84
2022/11/09 05:33:05;;;;;;;16.20;14.77;;;10.30;99.90;;;;;;4915630;29;20203;-84
2022/11/09 05:35:34;;;;;;;16.30;15.17;;;10.30;99.90;;;;;;4915769;29;20624;-83
2022/11/09 05:38:04;;;;;;;16.00;14.87;;;10.30;99.90;;;;;;4914561;29;20595;-84
2022/11/09 05:40:34;;;;;;;16.90;15.70;;;10.30;99.90;;;;;;4915967;29;20207;-84
2022/11/09 05:43:01;;;;;;;16.17;15.00;;;10.30;99.90;;;;;;4916367;29;20239;-83
2022/11/09 05:45:28;;;;;;;16.83;15.67;;;10.30;99.90;;;;;;4915945;29;20223;-84
2022/11/09 05:48:04;;;;;;;15.57;14.53;;;10.20;99.90;;;;;;4914461;29;20199;-83
2022/11/09 05:50:32;;;;;;;16.23;15.13;;;10.30;99.90;;;;;;4916719;29;20264;-83
2022/11/09 05:53:34;;;;;;;15.13;14.23;;;10.30;99.90;;;;;;4922258;29;20291;-83
2022/11/09 05:56:03;;;;;;;15.57;14.57;;;10.30;99.90;;;;;;4916654;29;20674;-84
2022/11/09 05:58:31;;;;;;;15.50;14.50;;;10.40;99.90;;;;;;4927657;29;20364;-83
2022/11/09 06:00:59;;;;;;;14.87;13.90;;;10.50;99.90;;;;;;4920080;29;20288;-83
2022/11/09 06:03:26;;;;;;;15.33;14.40;;;10.60;99.90;;;;;;4921045;29;20209;-83
2022/11/09 06:05:55;;;;;;;15.17;14.20;;;10.60;99.90;;;;;;4921353;29;20215;-84
2022/11/09 06:08:21;;;;;;;14.70;13.80;;;10.60;99.90;;;;;;4918905;29;20203;-84
2022/11/09 06:10:48;;;;;;;15.90;14.80;;;10.70;99.90;;;;;;4915877;29;20306;-82
2022/11/09 06:13:15;;;;;;;15.60;14.60;;;10.70;99.90;;;;;;4908025;29;20196;-83
2022/11/09 06:15:42;;;;;;;15.97;14.87;;;10.70;99.90;;;;;;4919173;29;20232;-83
2022/11/09 06:18:09;;;;;;;14.63;13.73;;;10.70;99.90;;;;;;4920846;29;20295;-83
2022/11/09 06:20:36;;;;;;;13.57;12.77;;;10.80;99.90;;;;;;4917806;29;20203;-83
2022/11/09 06:23:05;;;;;;;14.37;13.40;;;10.80;99.90;;;;;;4920138;29;20214;-83
2022/11/09 06:25:33;;;;;;;15.30;14.30;;;10.80;99.90;;;;;;4919654;29;20199;-83
2022/11/09 06:28:00;;;;;;;14.90;14.00;;;10.90;99.90;;;;;;4916094;29;20196;-84
2022/11/09 06:30:27;;;;;;;15.33;14.43;;;10.90;99.90;;;;;;4919148;29;20213;-82
2022/11/09 06:32:58;;;;;;;15.07;14.27;;;11.00;99.90;;;;;;4915676;29;20197;-83
2022/11/09 06:35:25;;;;;;;14.30;13.50;;;11.00;99.90;;;;;;4924281;29;20296;-83
2022/11/09 06:37:55;;;;;;;13.90;13.10;;;11.00;99.90;;;;;;4914685;29;20227;-82
2022/11/09 06:40:24;;;;;;;14.20;13.23;;;11.00;99.90;;;;;;4918579;29;20227;-84
2022/11/09 06:42:51;;;;;;;14.37;13.47;;;11.10;99.90;;;;;;4918754;29;20214;-84
2022/11/09 06:45:17;;;;;;;14.23;13.43;;;11.10;99.90;;;;;;4920461;29;20213;-83
2022/11/09 06:47:46;;;;;;;13.90;13.10;;;11.10;99.90;;;;;;4919554;29;20202;-84
2022/11/09 06:50:13;;;;;;;15.00;14.17;;;11.20;99.90;;;;;;4918984;29;20299;-81
2022/11/09 06:52:47;;;;;;;12.60;11.90;;;11.20;99.90;;;;;;4918984;29;20252;-84
2022/11/09 06:55:14;;;;;;;13.37;12.47;;;11.20;99.90;;;;;;4918979;29;20221;-81
2022/11/09 06:57:43;;;;;;;14.13;13.33;;;11.20;99.90;;;;;;4918405;29;20204;-84
2022/11/09 07:00:11;;;;;;;13.33;12.53;;;11.30;99.90;;;;;;4918960;29;20209;-85
2022/11/09 07:02:38;;;;;;;14.20;13.40;;;11.30;99.90;;;;;;4918932;29;20679;-84
2022/11/09 07:05:06;;;;;;;15.07;14.07;;;11.30;99.90;;;;;;4918430;29;20199;-85
2022/11/09 07:07:33;;;;;;;12.97;12.17;;;11.30;99.90;;;;;;4917933;29;20213;-84
2022/11/09 07:10:00;;;;;;;12.80;12.00;;;11.30;99.90;;;;;;4917697;29;20209;-83
2022/11/09 07:12:27;;;;;;;12.20;11.20;;;11.30;99.90;;;;;;4917547;29;20229;-83
2022/11/09 07:14:55;;;;;;;12.50;11.60;;;11.30;99.90;;;;;;4918317;29;20217;-83
2022/11/09 07:17:22;;;;;;;13.87;13.00;;;11.30;99.90;;;;;;4918381;29;20219;-85
2022/11/09 07:19:49;;;;;;;13.70;12.80;;;11.30;99.90;;;;;;4916216;29;20204;-85
2022/11/09 07:22:16;;;;;;;15.33;14.43;;;11.20;99.90;;;;;;4904468;29;20237;-84
2022/11/09 07:24:43;;;;;;;13.57;12.77;;;11.20;99.90;;;;;;4905566;29;20202;-84
2022/11/09 07:27:09;;;;;;;14.63;13.70;;;11.30;99.90;;;;;;4909761;29;20197;-84
2022/11/09 07:29:36;;;;;;;13.50;12.60;;;11.20;99.90;;;;;;4917253;29;20646;-82
2022/11/09 07:32:05;;;;;;;12.40;11.53;;;11.20;99.90;;;;;;4918216;29;20229;-86
2022/11/09 07:34:32;;;;;;;13.43;12.63;;;11.30;99.90;;;;;;4910169;29;20220;-85
2022/11/09 07:36:59;;;;;;;13.57;12.77;;;11.20;99.90;;;;;;4917610;29;20211;-81
2022/11/09 07:39:26;;;;;;;14.37;13.47;;;11.20;99.90;;;;;;4916200;29;20202;-80
2022/11/09 07:41:54;;;;;;;14.53;13.63;;;11.20;99.90;;;;;;4917393;29;20230;-81
2022/11/09 07:44:21;;;;;;;15.80;14.70;;;11.20;99.90;;;;;;4917611;29;20209;-82
2022/11/09 07:46:48;;;;;;;16.10;14.97;;;11.20;99.90;;;;;;4916411;29;20205;-83
2022/11/09 07:49:17;;;;;;;16.23;15.23;;;11.10;99.90;;;;;;4911400;29;20581;-84
2022/11/09 07:51:44;;;;;;;15.93;14.70;;;11.10;99.90;;;;;;4917598;29;20230;-83
2022/11/09 07:54:11;;;;;;;6.73;6.03;;;11.00;99.90;;;;;;4916141;29;20603;-82
2022/11/09 07:56:38;;;;;;;6.57;5.83;;;11.00;99.90;;;;;;4917498;29;20207;-83
2022/11/09 07:59:06;;;;;;;6.27;5.67;;;11.00;99.90;;;;;;4916388;29;20210;-83
2022/11/09 08:01:32;;;;;;;6.50;5.87;;;11.00;99.90;;;;;;4915964;29;20237;-84
2022/11/09 08:04:00;;;;;;;7.40;6.20;;;11.00;99.90;;;;;;4917198;29;20221;-84
2022/11/09 08:06:28;;;;;;;6.70;5.80;;;10.90;99.90;;;;;;4917624;29;20677;-83
2022/11/09 08:08:55;;;;;;;6.83;5.97;;;10.90;99.90;;;;;;4917583;29;20202;-84
2022/11/09 08:11:22;;;;;;;7.17;6.43;;;10.90;99.90;;;;;;4917849;29;20641;-83
2022/11/09 08:13:49;;;;;;;7.00;6.30;;;10.90;99.90;;;;;;4917496;29;20284;-83
2022/11/09 08:16:16;;;;;;;6.93;6.07;;;11.00;99.90;;;;;;4917069;29;20703;-84
2022/11/09 08:18:43;;;;;;;6.60;5.90;;;11.00;99.90;;;;;;4916785;29;20209;-84
2022/11/09 08:21:10;;;;;;;6.10;5.47;;;11.00;99.90;;;;;;4917877;29;20312;-85
2022/11/09 08:23:39;;;;;;;6.70;6.00;;;11.00;99.90;;;;;;4917891;29;20204;-83
2022/11/09 08:26:06;;;;;;;6.00;5.40;;;11.10;99.90;;;;;;4917639;29;20273;-83
2022/11/09 08:28:34;;;;;;;6.60;5.87;;;11.10;99.90;;;;;;4919676;29;20208;-83
2022/11/09 08:31:04;;;;;;;6.47;5.80;;;11.10;99.90;;;;;;4918058;29;20225;-83
2022/11/09 08:33:34;;;;;;;6.90;6.20;;;11.10;99.90;;;;;;4913708;29;20746;-83
2022/11/09 08:36:01;;;;;;;7.30;6.60;;;11.00;99.90;;;;;;4917661;29;20788;-83
2022/11/09 08:38:27;;;;;;;7.07;6.47;;;11.10;99.90;;;;;;4917027;29;20366;-83
2022/11/09 08:40:58;;;;;;;9.13;6.80;;;11.10;99.90;;;;;;4916886;29;20225;-84
2022/11/09 08:43:26;;;;;;;7.60;6.80;;;11.10;99.90;;;;;;4914407;29;20208;-83
2022/11/09 08:45:53;;;;;;;7.90;7.10;;;11.00;99.90;;;;;;4928426;29;20680;-84
2022/11/09 08:48:20;;;;;;;8.13;6.63;;;11.10;99.90;;;;;;4916884;29;20213;-84
2022/11/09 08:50:52;;;;;;;7.07;6.37;;;11.10;99.90;;;;;;4917057;29;20224;-84
2022/11/09 08:53:19;;;;;;;6.83;6.10;;;11.20;99.90;;;;;;4916538;29;20519;-83
2022/11/09 08:55:46;;;;;;;7.03;6.30;;;11.20;99.90;;;;;;4916566;29;20224;-79
2022/11/09 08:58:14;;;;;;;6.40;5.80;;;11.20;99.90;;;;;;4909348;29;20256;-82
2022/11/09 09:00:42;;;;;;;5.47;4.93;;;11.30;99.90;;;;;;4908667;29;20202;-83
2022/11/09 09:03:09;;;;;;;6.83;5.57;;;11.30;99.90;;;;;;4905920;29;20222;-82
2022/11/09 09:05:36;;;;;;;6.50;5.90;;;11.30;99.90;;;;;;4913000;29;20202;-85
2022/11/09 09:08:05;;;;;;;6.97;6.27;;;11.30;99.90;;;;;;4920093;29;20205;-83
2022/11/09 09:10:34;;;;;;;5.43;4.93;;;11.40;99.90;;;;;;4913264;29;20202;-83
2022/11/09 09:13:01;;;;;;;5.50;5.00;;;11.50;99.90;;;;;;4903627;29;20206;-84
2022/11/09 09:15:29;;;;;;;5.00;4.60;;;11.60;99.90;;;;;;4904176;29;20223;-82
2022/11/09 09:17:59;;;;;;;4.87;4.37;;;11.70;99.90;;;;;;4915820;29;20212;-83
2022/11/09 09:20:26;;;;;;;5.63;4.60;;;11.80;99.90;;;;;;4918468;29;20736;-81
2022/11/09 09:22:53;;;;;;;4.40;4.00;;;11.90;99.90;;;;;;4897608;29;20296;-82
2022/11/09 09:25:20;;;;;;;4.00;3.70;;;12.00;99.90;;;;;;4921404;29;20191;-83
2022/11/09 09:27:47;;;;;;;4.70;4.27;;;12.10;99.90;;;;;;4907566;29;20684;-85
2022/11/09 09:30:14;;;;;;;10.40;9.80;;;12.20;99.90;;;;;;4902702;29;20460;-84
2022/11/09 09:32:42;;;;;;;4.30;3.93;;;12.20;99.90;;;;;;4920048;29;20280;-86
2022/11/09 09:35:10;;;;;;;4.63;4.37;;;12.30;99.90;;;;;;4908447;29;20223;-89
2022/11/09 09:37:37;;;;;;;11.50;10.83;;;12.50;99.90;;;;;;4916272;29;20579;-81
2022/11/09 09:40:05;;;;;;;12.90;12.20;;;12.60;99.90;;;;;;4915891;29;20204;-81
2022/11/09 09:42:35;;;;;;;13.10;12.40;;;12.70;99.90;;;;;;4915861;29;20763;-82
2022/11/09 09:45:07;;;;;;;13.73;13.03;;;12.80;99.90;;;;;;4916572;29;20303;-84
2022/11/09 09:47:46;;;;;;;6.30;5.80;;;12.90;99.90;;;;;;4916160;29;20213;-84
2022/11/09 09:50:17;;;;;;;6.07;5.67;;;13.00;99.90;;;;;;4918813;29;20207;-84
2022/11/09 09:52:49;;;;;;;11.23;10.60;;;13.20;99.90;;;;;;4915837;29;20768;-85
2022/11/09 09:55:24;;;;;;;9.70;9.00;;;13.30;99.90;;;;;;4917007;29;20203;-84
2022/11/09 09:57:54;;;;;;;5.93;5.40;;;13.50;99.90;;;;;;4915692;29;20210;-83
2022/11/09 10:00:24;;;;;;;5.40;5.00;;;13.70;99.90;;;;;;4914565;29;20212;-84
2022/11/09 10:02:53;;;;;;;5.53;5.03;;;13.90;99.90;;;;;;4915094;29;20299;-84
2022/11/09 10:05:27;;;;;;;3.90;3.60;;;14.10;99.90;;;;;;4915035;29;20211;-84
2022/11/09 10:08:04;;;;;;;6.70;6.20;;;14.10;99.90;;;;;;4911990;29;20670;-84
2022/11/09 10:10:44;;;;;;;11.60;10.90;;;14.30;99.90;;;;;;4911512;29;20214;-84
2022/11/09 10:13:51;;;;;;;12.67;11.90;;;14.50;99.90;;;;;;4915087;29;20212;-84
2022/11/09 10:16:27;;;;;;;10.43;9.77;;;14.50;99.90;;;;;;4915189;29;20229;-84
2022/11/09 10:19:31;;;;;;;11.80;11.10;;;14.70;99.90;;;;;;4917577;29;20222;-84
2022/11/09 10:22:05;;;;;;;3.87;3.57;;;14.90;99.90;;;;;;4914725;29;20234;-84
2022/11/09 10:24:43;;;;;;;3.83;3.53;;;15.00;99.90;;;;;;4907828;29;20213;-85
2022/11/09 10:27:24;;;;;;;4.00;3.70;;;15.20;99.90;;;;;;4914888;29;20215;-84
2022/11/09 10:29:51;;;;;;;8.80;8.20;;;15.20;99.90;;;;;;4914520;29;20228;-84
2022/11/09 10:32:21;;;;;;;11.57;10.83;;;15.30;99.90;;;;;;4914356;29;20683;-84
2022/11/09 10:34:54;;;;;;;9.20;8.60;;;15.40;99.90;;;;;;4914427;29;20293;-84
2022/11/09 10:37:26;;;;;;;11.83;11.10;;;15.40;99.90;;;;;;4914346;29;20672;-83
2022/11/09 10:39:57;;;;;;;5.83;5.43;;;15.50;99.90;;;;;;4914450;29;20204;-84
2022/11/09 10:42:46;;;;;;;4.30;4.00;;;15.60;99.90;;;;;;4909937;29;20597;-84
2022/11/09 10:45:33;;;;;;;9.70;9.10;;;15.60;99.90;;;;;;4909367;29;20667;-84
2022/11/09 10:48:31;;;;;;;11.50;10.70;;;15.80;99.90;;;;;;4918984;29;20227;-84
2022/11/09 10:51:33;;;;;;;8.40;7.70;;;15.80;99.90;;;;;;4918545;29;20728;-84
2022/11/09 10:54:21;;;;;;;6.43;5.93;;;15.90;99.90;;;;;;4919632;29;20245;-84
2022/11/09 10:57:14;;;;;;;7.83;7.30;;;15.90;99.90;;;;;;4919480;29;20230;-86
2022/11/09 11:00:01;;;;;;;5.33;4.53;;;15.90;99.90;;;;;;4918482;29;20213;-84
2022/11/09 11:02:48;;;;;;;3.80;3.50;;;15.90;99.90;;;;;;4918644;29;20246;-84
2022/11/09 11:05:34;;;;;;;3.77;3.20;;;15.90;99.90;;;;;;4911740;29;20223;-85
2022/11/09 11:08:27;;;;;;;3.90;3.33;;;15.90;99.90;;;;;;4917654;29;20254;-85
2022/11/09 11:11:21;;;;;;;4.87;4.43;;;15.90;99.90;;;;;;4918317;29;20243;-85
2022/11/09 11:14:13;;;;;;;3.10;2.90;;;15.90;99.90;;;;;;4918665;29;20286;-84
2022/11/09 11:16:59;;;;;;;8.23;7.57;;;15.90;99.90;;;;;;4903422;29;20252;-84
2022/11/09 11:19:44;;;;;;;7.70;7.20;;;15.90;99.90;;;;;;4917283;29;20281;-84
2022/11/09 11:22:30;;;;;;;3.43;3.17;;;15.90;99.90;;;;;;4917781;29;20243;-85
2022/11/09 11:25:20;;;;;;;4.53;4.23;;;16.00;99.90;;;;;;4919020;29;20311;-83
2022/11/09 11:28:15;;;;;;;4.63;4.07;;;16.00;99.90;;;;;;4919019;29;20704;-84
2022/11/09 11:31:00;;;;;;;4.93;4.50;;;16.10;99.90;;;;;;4921811;29;20720;-84
2022/11/09 11:33:46;;;;;;;3.80;3.50;;;16.10;99.90;;;;;;4917102;29;20211;-84
2022/11/09 11:36:42;;;;;;;4.33;4.03;;;16.10;99.90;;;;;;4914991;29;20235;-84
2022/11/09 11:39:40;;;;;;;3.40;3.20;;;16.00;99.90;;;;;;4915708;29;20300;-84
2022/11/09 11:42:56;;;;;;;8.23;7.70;;;16.00;99.90;;;;;;4918140;29;20250;-85
2022/11/09 11:45:45;;;;;;;3.73;3.43;;;16.00;99.90;;;;;;4912972;29;20691;-85
2022/11/09 11:49:03;;;;;;;3.63;3.33;;;16.00;99.90;;;;;;4910979;29;20215;-84
2022/11/09 11:51:57;;;;;;;7.00;6.40;;;15.90;99.90;;;;;;4905784;29;20300;-84
2022/11/09 11:55:14;;;;;;;5.90;3.50;;;15.80;99.90;;;;;;4919270;29;20235;-84
2022/11/09 11:58:19;;;;;;;3.80;3.30;;;15.90;99.90;;;;;;4914295;29;20298;-84
2022/11/09 12:01:21;;;;;;;3.40;3.10;;;15.90;99.90;;;;;;4915065;29;20231;-84
2022/11/09 12:04:24;;;;;;;3.47;3.13;;;16.00;99.90;;;;;;4915511;29;20671;-84
2022/11/09 12:07:21;;;;;;;3.63;3.30;;;16.10;99.90;;;;;;4916259;29;20590;-85
2022/11/09 12:10:27;;;;;;;3.63;3.33;;;16.10;99.90;;;;;;4919539;29;20251;-85
2022/11/09 12:13:28;;;;;;;9.80;9.20;;;16.00;99.90;;;;;;4918091;29;20210;-84
2022/11/09 12:16:24;;;;;;;4.03;3.43;;;16.00;99.90;;;;;;4918138;29;20218;-84
2022/11/09 12:19:36;;;;;;;4.40;3.50;;;16.00;99.90;;;;;;4917430;29;20569;-81
2022/11/09 12:22:33;;;;;;;3.40;3.20;;;16.00;99.90;;;;;;4916619;29;20848;-82
2022/11/09 12:25:24;;;;;;;3.42;3.17;;;16.10;99.90;;;;;;4917303;29;20434;-84
2022/11/09 12:28:23;;;;;;;3.53;3.10;;;16.00;99.90;;;;;;4918149;29;20214;-83
2022/11/09 12:31:20;;;;;;;6.10;5.70;;;16.00;99.90;;;;;;4915619;29;20262;-84
2022/11/09 12:34:12;;;;;;;4.23;3.93;;;16.00;99.90;;;;;;4918114;29;20258;-83
2022/11/09 12:37:01;;;;;;;3.80;3.50;;;16.00;99.90;;;;;;4917191;29;20230;-84
2022/11/09 12:39:52;;;;;;;3.53;3.30;;;16.20;99.90;;;;;;4912108;29;20634;-82
2022/11/09 12:42:45;;;;;;;2.90;2.80;;;16.20;99.90;;;;;;4907710;29;20599;-83
2022/11/09 12:45:35;;;;;;;3.40;3.10;;;16.40;99.90;;;;;;4919293;29;20211;-84
2022/11/09 12:48:24;;;;;;;7.93;7.47;;;16.40;99.90;;;;;;4925744;29;20611;-84
2022/11/09 12:51:10;;;;;;;3.10;2.90;;;16.40;99.90;;;;;;4919180;29;20314;-83
2022/11/09 12:53:57;;;;;;;3.33;3.10;;;16.30;99.90;;;;;;4913197;29;20243;-84
2022/11/09 12:56:55;;;;;;;3.77;3.50;;;16.20;99.90;;;;;;4917107;29;20237;-84
2022/11/09 12:59:48;;;;;;;4.90;4.60;;;16.10;99.90;;;;;;4911176;29;20261;-84
2022/11/09 13:02:40;;;;;;;4.67;4.37;;;16.00;99.90;;;;;;4916986;29;20234;-82
2022/11/09 13:05:31;;;;;;;7.10;6.60;;;15.90;99.90;;;;;;4917513;29;20215;-83
2022/11/09 13:08:23;;;;;;;4.30;4.10;;;15.80;99.90;;;;;;4916363;29;20700;-83
2022/11/09 13:11:17;;;;;;;5.00;4.70;;;15.80;99.90;;;;;;4914535;29;20219;-83
2022/11/09 13:14:33;;;;;;;11.40;10.70;;;15.70;99.90;;;;;;4916325;29;20211;-83
2022/11/09 13:18:03;;;;;;;4.80;4.50;;;15.70;99.90;;;;;;4917014;29;20326;-84
2022/11/09 13:20:54;;;;;;;7.87;7.40;;;15.60;99.90;;;;;;4912350;29;20247;-83
2022/11/09 13:23:40;;;;;;;4.23;4.00;;;15.60;99.90;;;;;;4911319;29;20224;-83
2022/11/09 13:26:56;;;;;;;4.40;4.00;;;15.60;99.90;;;;;;4917207;29;20230;-83
2022/11/09 13:29:48;;;;;;;5.30;4.80;;;15.50;99.90;;;;;;4918033;29;20577;-83
2022/11/09 13:32:34;;;;;;;4.83;4.43;;;15.50;99.90;;;;;;4910462;29;20477;-83
2022/11/09 13:35:58;;;;;;;3.63;3.10;;;15.40;99.90;;;;;;4919181;29;20577;-83
2022/11/09 13:38:46;;;;;;;9.30;8.73;;;15.40;99.90;;;;;;4915504;29;20273;-84
2022/11/09 13:41:43;;;;;;;4.40;4.10;;;15.40;99.90;;;;;;4916348;29;20239;-84
2022/11/09 13:44:29;;;;;;;7.93;7.43;;;15.40;99.90;;;;;;4916190;29;20215;-82
2022/11/09 13:47:22;;;;;;;3.37;2.87;;;15.40;99.90;;;;;;4916718;29;20218;-82
2022/11/09 13:50:18;;;;;;;2.80;2.60;;;15.40;99.90;;;;;;4916393;29;20290;-82
2022/11/09 13:53:03;;;;;;;3.23;3.03;;;15.30;99.90;;;;;;4917285;29;20209;-82
2022/11/09 13:55:50;;;;;;;7.37;6.87;;;15.30;99.90;;;;;;4916650;29;20220;-83
2022/11/09 13:58:38;;;;;;;7.57;7.13;;;15.20;99.90;;;;;;4912974;29;20213;-79
2022/11/09 14:01:29;;;;;;;5.60;5.20;;;15.20;99.90;;;;;;4917448;29;20728;-81
2022/11/09 14:04:22;;;;;;;4.13;3.83;;;15.10;99.90;;;;;;4917422;29;20230;-82
2022/11/09 14:07:15;;;;;;;7.93;7.33;;;15.10;99.90;;;;;;4916434;29;20213;-81
2022/11/09 14:10:07;;;;;;;7.57;7.07;;;15.00;99.90;;;;;;4912774;29;20207;-82
2022/11/09 14:13:08;;;;;;;8.20;7.60;;;15.00;99.90;;;;;;4913759;29;20236;-81
2022/11/09 14:16:02;;;;;;;9.60;9.00;;;14.90;99.90;;;;;;4912206;29;20334;-82
2022/11/09 14:19:00;;;;;;;11.90;11.20;;;14.80;99.90;;;;;;4911575;29;20216;-82
2022/11/09 14:21:49;;;;;;;11.90;11.20;;;14.80;99.90;;;;;;4912967;29;20231;-82
2022/11/09 14:24:38;;;;;;;12.10;11.30;;;14.80;99.90;;;;;;4915388;29;20334;-82
2022/11/09 14:27:23;;;;;;;11.50;10.80;;;14.70;99.90;;;;;;4919785;29;20230;-84
2022/11/09 14:30:20;;;;;;;11.70;11.00;;;14.70;99.90;;;;;;4919688;29;20211;-82
2022/11/09 14:33:21;;;;;;;11.53;10.93;;;14.60;99.90;;;;;;4919828;29;20213;-82
2022/11/09 14:36:07;;;;;;;11.80;11.10;;;14.50;99.90;;;;;;4920733;29;20274;-83
2022/11/09 14:38:53;;;;;;;5.17;4.77;;;14.50;99.90;;;;;;4915626;29;20285;-82
2022/11/09 14:41:44;;;;;;;7.47;6.90;;;14.40;99.90;;;;;;4916229;29;20237;-83
2022/11/09 14:44:34;;;;;;;11.90;11.20;;;14.30;99.90;;;;;;4912668;29;20218;-83
2022/11/09 14:47:28;;;;;;;12.37;11.67;;;14.20;99.90;;;;;;4918595;29;20233;-83
2022/11/09 14:50:17;;;;;;;11.80;11.10;;;14.20;99.90;;;;;;4919181;29;20287;-82
2022/11/09 14:53:04;;;;;;;12.40;11.70;;;14.10;99.90;;;;;;4919987;29;20237;-82
2022/11/09 14:55:51;;;;;;;11.73;11.03;;;14.00;99.90;;;;;;4915315;29;20231;-82
2022/11/09 14:58:41;;;;;;;11.57;10.87;;;14.00;99.90;;;;;;4915904;29;20302;-82
2022/11/09 15:01:28;;;;;;;11.47;10.77;;;14.00;99.90;;;;;;4911787;29;20239;-83
2022/11/09 15:04:18;;;;;;;13.23;12.43;;;14.00;99.90;;;;;;4910320;29;20207;-82
2022/11/09 15:07:05;;;;;;;5.30;5.00;;;13.90;99.90;;;;;;4916509;29;20203;-82
2022/11/09 15:09:54;;;;;;;5.97;5.43;;;13.80;99.90;;;;;;4919730;29;20267;-79
2022/11/09 15:12:47;;;;;;;13.30;12.43;;;13.80;99.90;;;;;;4913250;29;20230;-82
2022/11/09 15:15:34;;;;;;;14.63;13.43;;;13.70;99.90;;;;;;4920589;29;20628;-82
2022/11/09 15:18:23;;;;;;;13.93;12.97;;;13.70;99.90;;;;;;4913770;29;20232;-83
2022/11/09 15:21:17;;;;;;;15.87;14.67;;;13.70;99.90;;;;;;4916529;29;20267;-85
2022/11/09 15:24:13;;;;;;;16.77;15.57;;;13.60;99.90;;;;;;4918894;29;20219;-84
2022/11/09 15:26:58;;;;;;;6.77;5.70;;;13.50;99.90;;;;;;4915442;29;20620;-85
2022/11/09 15:29:44;;;;;;;7.73;6.77;;;13.50;99.90;;;;;;4918989;29;20271;-84
2022/11/09 15:32:34;;;;;;;7.90;6.07;;;13.50;99.90;;;;;;4919215;29;20320;-84
2022/11/09 15:35:20;;;;;;;11.40;10.27;;;13.40;99.90;;;;;;4919061;29;20700;-81
2022/11/09 15:38:32;;;;;;;15.30;14.20;;;13.40;99.90;;;;;;4918725;29;20711;-84
2022/11/09 15:41:20;;;;;;;16.47;15.27;;;13.40;99.90;;;;;;4918890;29;20259;-82
2022/11/09 15:44:06;;;;;;;13.17;12.30;;;13.30;99.90;;;;;;4919601;29;20210;-81
2022/11/09 15:46:53;;;;;;;14.43;13.33;;;13.30;99.90;;;;;;4919188;29;20719;-81
2022/11/09 15:49:38;;;;;;;14.67;13.77;;;13.30;99.90;;;;;;4919029;29;20226;-81
2022/11/09 15:52:24;;;;;;;17.40;16.40;;;13.20;99.90;;;;;;4919114;29;20238;-81
2022/11/09 15:55:12;;;;;;;13.13;12.33;;;13.20;99.90;;;;;;4918762;29;20210;-81
2022/11/09 15:57:58;;;;;;;16.73;15.80;;;13.10;99.90;;;;;;4919273;29;20234;-81
2022/11/09 16:00:44;;;;;;;14.70;13.70;;;13.10;99.90;;;;;;4912686;29;20696;-80
2022/11/09 16:03:30;;;;;;;13.03;12.27;;;13.10;99.90;;;;;;4919175;29;20338;-80
2022/11/09 16:06:17;;;;;;;13.77;12.97;;;13.00;99.90;;;;;;4920295;29;20221;-81
2022/11/09 16:09:03;;;;;;;14.00;13.10;;;13.00;99.90;;;;;;4916000;29;20691;-83
2022/11/09 16:11:50;;;;;;;14.47;13.57;;;12.90;99.90;;;;;;4916307;29;20238;-82
2022/11/09 16:14:36;;;;;;;14.87;13.97;;;12.90;99.90;;;;;;4917174;29;20246;-81
2022/11/09 16:17:21;;;;;;;14.03;13.13;;;12.80;99.90;;;;;;4917451;29;20222;-81
2022/11/09 16:20:07;;;;;;;13.87;12.77;;;12.80;99.90;;;;;;4917875;29;20217;-82
2022/11/09 16:22:53;;;;;;;13.60;12.70;;;12.80;99.90;;;;;;4916738;29;20586;-79
2022/11/09 16:25:38;;;;;;;13.73;12.83;;;12.80;99.90;;;;;;4917256;29;20229;-82
2022/11/09 16:28:25;;;;;;;13.40;12.60;;;12.80;99.90;;;;;;4918356;29;20286;-82
2022/11/09 16:31:12;;;;;;;12.90;12.10;;;12.70;99.90;;;;;;4917636;29;20231;-82
2022/11/09 16:33:57;;;;;;;13.40;12.60;;;12.70;99.90;;;;;;4916717;29;20301;-82
2022/11/09 16:36:43;;;;;;;12.97;12.17;;;12.70;99.90;;;;;;4916423;29;20597;-82